ΕΜΥ, Εθνική Μετεωρολογική Υπηρεσία - Δελτία Καιρού, Προγνώσεις

ΑΕΡΟΝΑΥΤΙΛΙΑ

GREEK AIRPORTS CODES

TAF LGST 191400Z 1915/1924 04008KT 9999 FEW020=

EUROPEAN AIRPORTS CODES

LFPO 191500Z VRB02KT 9999 SCT063CB SCT076 BKN100 28/14 Q1011TEMPO 4000 SHRA BKN040CB=